sensor_id;sensor_type;location;lat;lon;timestamp;pressure;altitude;pressure_sealevel;temperature;humidity
61697;BME280;47610;52.252;20.922;2023-04-27T00:01:40;100249.77;;;5.23;100.00
61697;BME280;47610;52.252;20.922;2023-04-27T00:06:44;100256.20;;;5.19;100.00
61697;BME280;47610;52.252;20.922;2023-04-27T00:11:47;100254.67;;;5.14;100.00
61697;BME280;47610;52.252;20.922;2023-04-27T00:16:50;100254.98;;;5.09;100.00
61697;BME280;47610;52.252;20.922;2023-04-27T00:21:53;100251.61;;;5.05;100.00
61697;BME280;47610;52.252;20.922;2023-04-27T00:26:56;100251.11;;;5.01;100.00
61697;BME280;47610;52.252;20.922;2023-04-27T00:31:59;100253.98;;;4.98;100.00
61697;BME280;47610;52.252;20.922;2023-04-27T00:37:03;100257.30;;;4.97;100.00
61697;BME280;47610;52.252;20.922;2023-04-27T00:42:06;100259.38;;;4.95;100.00
61697;BME280;47610;52.252;20.922;2023-04-27T00:47:10;100265.16;;;4.92;100.00
61697;BME280;47610;52.252;20.922;2023-04-27T00:52:14;100263.13;;;4.86;100.00
61697;BME280;47610;52.252;20.922;2023-04-27T00:57:17;100265.38;;;4.80;100.00
61697;BME280;47610;52.252;20.922;2023-04-27T01:02:21;100270.17;;;4.72;100.00
61697;BME280;47610;52.252;20.922;2023-04-27T01:07:26;100268.56;;;4.66;100.00
61697;BME280;47610;52.252;20.922;2023-04-27T01:12:29;100274.44;;;4.59;100.00
61697;BME280;47610;52.252;20.922;2023-04-27T01:17:32;100276.29;;;4.52;100.00
61697;BME280;47610;52.252;20.922;2023-04-27T01:22:36;100276.20;;;4.48;100.00
61697;BME280;47610;52.252;20.922;2023-04-27T01:27:39;100277.05;;;4.45;100.00
61697;BME280;47610;52.252;20.922;2023-04-27T01:32:42;100279.03;;;4.40;100.00
61697;BME280;47610;52.252;20.922;2023-04-27T01:37:45;100280.09;;;4.37;100.00
61697;BME280;47610;52.252;20.922;2023-04-27T01:42:48;100282.33;;;4.34;100.00
61697;BME280;47610;52.252;20.922;2023-04-27T01:47:52;100281.37;;;4.31;100.00
61697;BME280;47610;52.252;20.922;2023-04-27T01:52:55;100282.22;;;4.28;100.00
61697;BME280;47610;52.252;20.922;2023-04-27T01:57:58;100287.79;;;4.26;100.00
61697;BME280;47610;52.252;20.922;2023-04-27T02:03:02;100289.39;;;4.24;100.00
61697;BME280;47610;52.252;20.922;2023-04-27T02:08:05;100296.37;;;4.25;100.00
61697;BME280;47610;52.252;20.922;2023-04-27T02:13:08;100291.14;;;4.24;100.00
61697;BME280;47610;52.252;20.922;2023-04-27T02:18:12;100291.38;;;4.24;100.00
61697;BME280;47610;52.252;20.922;2023-04-27T02:23:15;100290.98;;;4.23;100.00
61697;BME280;47610;52.252;20.922;2023-04-27T02:28:18;100286.85;;;4.23;100.00
61697;BME280;47610;52.252;20.922;2023-04-27T02:33:21;100286.61;;;4.20;100.00
61697;BME280;47610;52.252;20.922;2023-04-27T02:38:24;100286.63;;;4.18;100.00
61697;BME280;47610;52.252;20.922;2023-04-27T02:43:28;100292.31;;;4.14;100.00
61697;BME280;47610;52.252;20.922;2023-04-27T02:48:32;100298.18;;;4.11;100.00
61697;BME280;47610;52.252;20.922;2023-04-27T02:53:35;100303.46;;;4.09;100.00
61697;BME280;47610;52.252;20.922;2023-04-27T02:58:38;100299.98;;;4.04;100.00
61697;BME280;47610;52.252;20.922;2023-04-27T03:03:41;100302.45;;;4.01;100.00
61697;BME280;47610;52.252;20.922;2023-04-27T03:08:45;100299.44;;;3.99;100.00
61697;BME280;47610;52.252;20.922;2023-04-27T03:13:48;100307.44;;;3.96;100.00
61697;BME280;47610;52.252;20.922;2023-04-27T03:18:51;100306.80;;;3.90;100.00
61697;BME280;47610;52.252;20.922;2023-04-27T03:23:54;100307.96;;;3.87;100.00
61697;BME280;47610;52.252;20.922;2023-04-27T03:28:57;100309.16;;;3.85;100.00
61697;BME280;47610;52.252;20.922;2023-04-27T03:34:01;100303.88;;;3.84;100.00
61697;BME280;47610;52.252;20.922;2023-04-27T03:39:04;100310.33;;;3.83;100.00
61697;BME280;47610;52.252;20.922;2023-04-27T03:44:07;100304.34;;;3.85;100.00
61697;BME280;47610;52.252;20.922;2023-04-27T03:49:11;100313.64;;;3.89;100.00
61697;BME280;47610;52.252;20.922;2023-04-27T03:54:14;100322.87;;;3.95;100.00
61697;BME280;47610;52.252;20.922;2023-04-27T03:59:17;100326.48;;;4.04;100.00
61697;BME280;47610;52.252;20.922;2023-04-27T04:04:20;100340.02;;;4.13;100.00
61697;BME280;47610;52.252;20.922;2023-04-27T04:09:24;100342.62;;;4.22;100.00
61697;BME280;47610;52.252;20.922;2023-04-27T04:14:27;100349.59;;;4.28;100.00
61697;BME280;47610;52.252;20.922;2023-04-27T04:19:30;100345.80;;;4.39;100.00
61697;BME280;47610;52.252;20.922;2023-04-27T04:24:35;100350.06;;;4.55;100.00
61697;BME280;47610;52.252;20.922;2023-04-27T04:29:39;100350.75;;;5.56;100.00
61697;BME280;47610;52.252;20.922;2023-04-27T04:34:42;100353.10;;;7.50;100.00
61697;BME280;47610;52.252;20.922;2023-04-27T04:39:46;100358.83;;;9.29;100.00
61697;BME280;47610;52.252;20.922;2023-04-27T04:44:50;100363.40;;;12.41;100.00
61697;BME280;47610;52.252;20.922;2023-04-27T04:49:53;100373.34;;;15.59;99.68
61697;BME280;47610;52.252;20.922;2023-04-27T04:54:56;100382.22;;;18.50;86.09
61697;BME280;47610;52.252;20.922;2023-04-27T04:59:59;100384.66;;;21.08;68.50
61697;BME280;47610;52.252;20.922;2023-04-27T05:05:03;100393.95;;;23.30;53.75
61697;BME280;47610;52.252;20.922;2023-04-27T05:10:07;100399.21;;;25.00;42.89
61697;BME280;47610;52.252;20.922;2023-04-27T05:15:10;100406.98;;;26.36;36.68
61697;BME280;47610;52.252;20.922;2023-04-27T05:20:13;100414.79;;;26.41;32.36
61697;BME280;47610;52.252;20.922;2023-04-27T05:25:17;100411.21;;;26.71;30.79
61697;BME280;47610;52.252;20.922;2023-04-27T05:30:20;100415.75;;;26.76;28.84
61697;BME280;47610;52.252;20.922;2023-04-27T05:35:23;100418.70;;;26.55;27.95
61697;BME280;47610;52.252;20.922;2023-04-27T05:40:27;100419.20;;;25.65;27.56
61697;BME280;47610;52.252;20.922;2023-04-27T05:45:30;100415.04;;;24.08;28.36
61697;BME280;47610;52.252;20.922;2023-04-27T05:50:33;100417.04;;;23.46;28.98
61697;BME280;47610;52.252;20.922;2023-04-27T05:55:39;100417.72;;;23.19;29.56
61697;BME280;47610;52.252;20.922;2023-04-27T06:00:42;100420.58;;;24.01;29.16
61697;BME280;47610;52.252;20.922;2023-04-27T06:05:45;100418.52;;;24.12;28.57
61697;BME280;47610;52.252;20.922;2023-04-27T06:10:49;100424.08;;;23.05;28.94
61697;BME280;47610;52.252;20.922;2023-04-27T06:15:53;100426.77;;;22.90;29.60
61697;BME280;47610;52.252;20.922;2023-04-27T06:21:00;100427.35;;;23.69;29.26
61697;BME280;47610;52.252;20.922;2023-04-27T06:26:04;100430.41;;;23.72;28.66
61697;BME280;47610;52.252;20.922;2023-04-27T06:31:10;100427.66;;;22.93;29.22
61697;BME280;47610;52.252;20.922;2023-04-27T06:36:14;100429.59;;;22.62;29.98
61697;BME280;47610;52.252;20.922;2023-04-27T06:41:17;100425.95;;;22.42;30.33
61697;BME280;47610;52.252;20.922;2023-04-27T06:46:20;100431.77;;;22.31;31.26
61697;BME280;47610;52.252;20.922;2023-04-27T06:51:24;100436.43;;;23.20;30.81
61697;BME280;47610;52.252;20.922;2023-04-27T06:56:27;100444.61;;;24.25;29.90
61697;BME280;47610;52.252;20.922;2023-04-27T07:01:30;100447.73;;;24.39;28.71
61697;BME280;47610;52.252;20.922;2023-04-27T07:06:33;100445.96;;;24.10;28.89
61697;BME280;47610;52.252;20.922;2023-04-27T07:11:36;100440.96;;;23.93;29.37
61697;BME280;47610;52.252;20.922;2023-04-27T07:16:40;100444.23;;;23.12;30.15
61697;BME280;47610;52.252;20.922;2023-04-27T07:21:44;100444.71;;;23.45;30.61
61697;BME280;47610;52.252;20.922;2023-04-27T07:26:47;100450.66;;;25.02;29.28
61697;BME280;47610;52.252;20.922;2023-04-27T07:31:50;100455.53;;;26.44;27.46
61697;BME280;47610;52.252;20.922;2023-04-27T07:36:55;100458.48;;;27.30;26.49
61697;BME280;47610;52.252;20.922;2023-04-27T07:41:58;100460.72;;;27.58;25.25
61697;BME280;47610;52.252;20.922;2023-04-27T07:47:02;100457.14;;;27.75;24.63
61697;BME280;47610;52.252;20.922;2023-04-27T07:52:05;100461.86;;;28.19;23.76
61697;BME280;47610;52.252;20.922;2023-04-27T07:57:11;100461.84;;;28.81;22.65
61697;BME280;47610;52.252;20.922;2023-04-27T08:02:14;100459.98;;;29.28;22.37
61697;BME280;47610;52.252;20.922;2023-04-27T08:07:18;100467.47;;;29.10;21.93
61697;BME280;47610;52.252;20.922;2023-04-27T08:12:20;100464.84;;;29.05;22.17
61697;BME280;47610;52.252;20.922;2023-04-27T08:17:23;100464.56;;;29.53;21.28
61697;BME280;47610;52.252;20.922;2023-04-27T08:22:26;100459.08;;;29.28;21.65
61697;BME280;47610;52.252;20.922;2023-04-27T08:27:29;100459.96;;;29.67;21.40
61697;BME280;47610;52.252;20.922;2023-04-27T08:32:32;100460.43;;;30.26;21.05
61697;BME280;47610;52.252;20.922;2023-04-27T08:37:35;100455.52;;;28.70;21.28
61697;BME280;47610;52.252;20.922;2023-04-27T08:42:41;100456.92;;;28.86;21.75
61697;BME280;47610;52.252;20.922;2023-04-27T08:47:55;100449.77;;;29.22;20.72
61697;BME280;47610;52.252;20.922;2023-04-27T08:52:58;100453.58;;;28.65;20.69
61697;BME280;47610;52.252;20.922;2023-04-27T08:58:01;100440.90;;;26.42;21.51
61697;BME280;47610;52.252;20.922;2023-04-27T09:03:05;100446.27;;;23.80;23.39
61697;BME280;47610;52.252;20.922;2023-04-27T09:08:08;100439.36;;;21.68;25.22
61697;BME280;47610;52.252;20.922;2023-04-27T09:13:11;100442.42;;;19.72;26.68
61697;BME280;47610;52.252;20.922;2023-04-27T09:18:17;100447.19;;;18.16;29.02
61697;BME280;47610;52.252;20.922;2023-04-27T09:23:30;100449.87;;;16.96;32.61
61697;BME280;47610;52.252;20.922;2023-04-27T09:28:36;100449.34;;;15.96;37.20
61697;BME280;47610;52.252;20.922;2023-04-27T09:33:42;100450.87;;;15.13;43.69
61697;BME280;47610;52.252;20.922;2023-04-27T09:38:46;100443.83;;;14.64;48.30
61697;BME280;47610;52.252;20.922;2023-04-27T09:43:52;100436.95;;;14.41;50.54
61697;BME280;47610;52.252;20.922;2023-04-27T09:48:56;100438.50;;;14.18;50.51
61697;BME280;47610;52.252;20.922;2023-04-27T09:54:01;100437.73;;;13.75;51.81
61697;BME280;47610;52.252;20.922;2023-04-27T09:59:21;100440.95;;;13.40;51.93
61697;BME280;47610;52.252;20.922;2023-04-27T10:04:52;100441.89;;;13.22;52.03
61697;BME280;47610;52.252;20.922;2023-04-27T10:10:03;100443.74;;;13.26;52.03
61697;BME280;47610;52.252;20.922;2023-04-27T10:15:17;100442.02;;;13.13;51.45
61697;BME280;47610;52.252;20.922;2023-04-27T10:20:30;100444.33;;;12.98;51.03
61697;BME280;47610;52.252;20.922;2023-04-27T10:25:39;100440.98;;;12.83;49.47
61697;BME280;47610;52.252;20.922;2023-04-27T10:30:45;100442.92;;;12.73;49.95
61697;BME280;47610;52.252;20.922;2023-04-27T10:35:56;100440.19;;;12.78;51.51
61697;BME280;47610;52.252;20.922;2023-04-27T10:41:01;100440.52;;;12.96;51.93
61697;BME280;47610;52.252;20.922;2023-04-27T10:46:13;100444.68;;;13.26;52.94
61697;BME280;47610;52.252;20.922;2023-04-27T10:51:17;100439.70;;;13.67;54.90
61697;BME280;47610;52.252;20.922;2023-04-27T10:56:21;100440.77;;;13.90;54.05
61697;BME280;47610;52.252;20.922;2023-04-27T11:01:26;100445.83;;;13.82;51.22
61697;BME280;47610;52.252;20.922;2023-04-27T11:06:31;100456.41;;;13.43;53.08
61697;BME280;47610;52.252;20.922;2023-04-27T11:11:36;100462.76;;;12.94;52.40
61697;BME280;47610;52.252;20.922;2023-04-27T11:16:46;100462.59;;;12.51;51.86
61697;BME280;47610;52.252;20.922;2023-04-27T11:21:49;100466.91;;;12.23;50.76
61697;BME280;47610;52.252;20.922;2023-04-27T11:26:54;100465.20;;;12.05;51.35
61697;BME280;47610;52.252;20.922;2023-04-27T11:31:57;100464.98;;;11.92;52.26
61697;BME280;47610;52.252;20.922;2023-04-27T11:37:02;100459.45;;;11.85;52.07
61697;BME280;47610;52.252;20.922;2023-04-27T11:42:20;100460.67;;;11.85;52.61
61697;BME280;47610;52.252;20.922;2023-04-27T11:47:26;100455.08;;;12.07;52.76
61697;BME280;47610;52.252;20.922;2023-04-27T11:52:30;100449.16;;;12.44;53.50
61697;BME280;47610;52.252;20.922;2023-04-27T11:57:35;100451.42;;;12.95;52.55
61697;BME280;47610;52.252;20.922;2023-04-27T12:02:39;100451.10;;;13.23;50.14
61697;BME280;47610;52.252;20.922;2023-04-27T12:07:43;100453.31;;;13.25;49.61
61697;BME280;47610;52.252;20.922;2023-04-27T12:12:47;100454.45;;;13.10;48.94
61697;BME280;47610;52.252;20.922;2023-04-27T12:17:50;100453.98;;;12.73;47.97
61697;BME280;47610;52.252;20.922;2023-04-27T12:22:55;100459.00;;;12.35;47.20
61697;BME280;47610;52.252;20.922;2023-04-27T12:27:58;100458.27;;;11.97;48.31
61697;BME280;47610;52.252;20.922;2023-04-27T12:33:02;100456.35;;;11.89;50.43
61697;BME280;47610;52.252;20.922;2023-04-27T12:38:05;100456.13;;;12.23;52.17
61697;BME280;47610;52.252;20.922;2023-04-27T12:43:11;100452.64;;;12.52;50.08
61697;BME280;47610;52.252;20.922;2023-04-27T12:48:15;100450.55;;;12.60;47.42
61697;BME280;47610;52.252;20.922;2023-04-27T12:53:18;100456.70;;;12.48;46.16
61697;BME280;47610;52.252;20.922;2023-04-27T12:58:22;100457.01;;;12.07;47.42
61697;BME280;47610;52.252;20.922;2023-04-27T13:03:26;100461.91;;;11.80;50.39
61697;BME280;47610;52.252;20.922;2023-04-27T13:08:30;100463.46;;;11.58;50.06
61697;BME280;47610;52.252;20.922;2023-04-27T13:13:34;100468.66;;;11.25;50.81
61697;BME280;47610;52.252;20.922;2023-04-27T13:18:38;100469.52;;;11.02;52.12
61697;BME280;47610;52.252;20.922;2023-04-27T13:23:42;100471.94;;;10.89;53.49
61697;BME280;47610;52.252;20.922;2023-04-27T13:28:45;100473.70;;;11.00;54.27
61697;BME280;47610;52.252;20.922;2023-04-27T13:33:48;100478.98;;;11.03;55.07
61697;BME280;47610;52.252;20.922;2023-04-27T13:38:52;100482.68;;;11.03;56.17
61697;BME280;47610;52.252;20.922;2023-04-27T13:43:56;100483.13;;;11.02;56.12
61697;BME280;47610;52.252;20.922;2023-04-27T13:48:59;100484.27;;;11.18;57.13
61697;BME280;47610;52.252;20.922;2023-04-27T13:54:02;100475.74;;;11.45;56.77
61697;BME280;47610;52.252;20.922;2023-04-27T13:59:05;100475.65;;;11.57;53.85
61697;BME280;47610;52.252;20.922;2023-04-27T14:04:09;100481.83;;;11.71;53.09
61697;BME280;47610;52.252;20.922;2023-04-27T14:09:12;100482.75;;;11.80;52.44
61697;BME280;47610;52.252;20.922;2023-04-27T14:14:15;100486.21;;;11.86;51.70
61697;BME280;47610;52.252;20.922;2023-04-27T14:19:19;100485.14;;;11.94;51.63
61697;BME280;47610;52.252;20.922;2023-04-27T14:24:22;100487.84;;;11.97;51.01
61697;BME280;47610;52.252;20.922;2023-04-27T14:29:26;100490.29;;;12.05;49.13
61697;BME280;47610;52.252;20.922;2023-04-27T14:34:29;100494.13;;;12.00;47.30
61697;BME280;47610;52.252;20.922;2023-04-27T14:39:32;100496.70;;;12.02;47.67
61697;BME280;47610;52.252;20.922;2023-04-27T14:44:35;100497.00;;;11.99;47.91
61697;BME280;47610;52.252;20.922;2023-04-27T14:49:38;100501.60;;;12.05;47.56
61697;BME280;47610;52.252;20.922;2023-04-27T14:54:42;100505.55;;;12.11;47.31
61697;BME280;47610;52.252;20.922;2023-04-27T14:59:45;100505.59;;;12.12;47.21
61697;BME280;47610;52.252;20.922;2023-04-27T15:04:48;100503.89;;;12.01;48.78
61697;BME280;47610;52.252;20.922;2023-04-27T15:09:52;100510.92;;;11.89;50.19
61697;BME280;47610;52.252;20.922;2023-04-27T15:14:55;100522.02;;;11.63;50.40
61697;BME280;47610;52.252;20.922;2023-04-27T15:19:58;100528.29;;;11.24;52.65
61697;BME280;47610;52.252;20.922;2023-04-27T15:25:02;100524.66;;;10.96;54.24
61697;BME280;47610;52.252;20.922;2023-04-27T15:30:08;100519.15;;;10.86;54.83
61697;BME280;47610;52.252;20.922;2023-04-27T15:35:12;100517.48;;;10.83;55.51
61697;BME280;47610;52.252;20.922;2023-04-27T15:40:17;100524.85;;;10.74;54.69
61697;BME280;47610;52.252;20.922;2023-04-27T15:45:21;100524.09;;;10.69;55.42
61697;BME280;47610;52.252;20.922;2023-04-27T15:50:24;100527.60;;;10.71;55.61
61697;BME280;47610;52.252;20.922;2023-04-27T15:55:29;100530.31;;;10.79;55.97
61697;BME280;47610;52.252;20.922;2023-04-27T16:00:33;100530.89;;;10.87;56.87
61697;BME280;47610;52.252;20.922;2023-04-27T16:05:37;100539.41;;;10.85;57.51
61697;BME280;47610;52.252;20.922;2023-04-27T16:10:40;100545.41;;;10.81;58.45
61697;BME280;47610;52.252;20.922;2023-04-27T16:15:43;100545.58;;;10.81;59.05
61697;BME280;47610;52.252;20.922;2023-04-27T16:20:46;100542.98;;;10.81;58.84
61697;BME280;47610;52.252;20.922;2023-04-27T16:25:50;100540.83;;;10.76;59.47
61697;BME280;47610;52.252;20.922;2023-04-27T16:30:53;100542.92;;;10.74;60.20
61697;BME280;47610;52.252;20.922;2023-04-27T16:35:56;100543.45;;;10.69;59.93
61697;BME280;47610;52.252;20.922;2023-04-27T16:41:00;100545.33;;;10.67;60.28
61697;BME280;47610;52.252;20.922;2023-04-27T16:46:04;100543.67;;;10.64;60.17
61697;BME280;47610;52.252;20.922;2023-04-27T16:51:07;100547.58;;;10.56;59.60
61697;BME280;47610;52.252;20.922;2023-04-27T16:56:10;100555.09;;;10.53;60.20
61697;BME280;47610;52.252;20.922;2023-04-27T17:01:15;100560.77;;;10.48;60.25
61697;BME280;47610;52.252;20.922;2023-04-27T17:06:21;100571.29;;;10.38;61.46
61697;BME280;47610;52.252;20.922;2023-04-27T17:11:25;100575.36;;;10.30;63.27
61697;BME280;47610;52.252;20.922;2023-04-27T17:16:28;100582.83;;;10.07;69.44
61697;BME280;47610;52.252;20.922;2023-04-27T17:21:32;100568.59;;;9.87;76.34
61697;BME280;47610;52.252;20.922;2023-04-27T17:26:35;100563.44;;;9.79;79.27
61697;BME280;47610;52.252;20.922;2023-04-27T17:31:38;100565.57;;;9.76;82.81
61697;BME280;47610;52.252;20.922;2023-04-27T17:36:41;100565.45;;;9.75;85.51
61697;BME280;47610;52.252;20.922;2023-04-27T17:41:44;100559.88;;;9.72;88.78
61697;BME280;47610;52.252;20.922;2023-04-27T17:46:49;100563.73;;;9.57;92.53
61697;BME280;47610;52.252;20.922;2023-04-27T17:51:53;100566.48;;;9.39;94.68
61697;BME280;47610;52.252;20.922;2023-04-27T17:56:57;100571.75;;;9.26;96.85
61697;BME280;47610;52.252;20.922;2023-04-27T18:02:00;100575.79;;;9.17;98.04
61697;BME280;47610;52.252;20.922;2023-04-27T18:07:03;100576.36;;;9.06;99.94
61697;BME280;47610;52.252;20.922;2023-04-27T18:12:07;100583.19;;;8.97;100.00
61697;BME280;47610;52.252;20.922;2023-04-27T18:17:10;100591.59;;;8.90;100.00
61697;BME280;47610;52.252;20.922;2023-04-27T18:22:14;100599.29;;;8.86;100.00
61697;BME280;47610;52.252;20.922;2023-04-27T18:27:17;100601.61;;;8.83;99.99
61697;BME280;47610;52.252;20.922;2023-04-27T18:32:21;100601.17;;;8.83;99.66
61697;BME280;47610;52.252;20.922;2023-04-27T18:37:26;100609.09;;;8.80;99.28
61697;BME280;47610;52.252;20.922;2023-04-27T18:42:30;100607.72;;;8.74;99.32
61697;BME280;47610;52.252;20.922;2023-04-27T18:47:34;100610.06;;;8.67;100.00
61697;BME280;47610;52.252;20.922;2023-04-27T18:52:37;100613.55;;;8.60;100.00
61697;BME280;47610;52.252;20.922;2023-04-27T18:57:43;100617.98;;;8.59;100.00
61697;BME280;47610;52.252;20.922;2023-04-27T19:02:46;100620.55;;;8.58;100.00
61697;BME280;47610;52.252;20.922;2023-04-27T19:07:49;100617.77;;;8.56;100.00
61697;BME280;47610;52.252;20.922;2023-04-27T19:12:53;100617.49;;;8.55;100.00
61697;BME280;47610;52.252;20.922;2023-04-27T19:17:56;100615.77;;;8.57;100.00
61697;BME280;47610;52.252;20.922;2023-04-27T19:22:59;100614.79;;;8.57;100.00
61697;BME280;47610;52.252;20.922;2023-04-27T19:28:02;100614.95;;;8.58;99.99
61697;BME280;47610;52.252;20.922;2023-04-27T19:33:06;100618.33;;;8.56;99.47
61697;BME280;47610;52.252;20.922;2023-04-27T19:38:09;100620.49;;;8.54;99.63
61697;BME280;47610;52.252;20.922;2023-04-27T19:43:12;100620.40;;;8.50;99.91
61697;BME280;47610;52.252;20.922;2023-04-27T19:48:15;100624.86;;;8.52;100.00
61697;BME280;47610;52.252;20.922;2023-04-27T19:53:19;100628.80;;;8.50;100.00
61697;BME280;47610;52.252;20.922;2023-04-27T19:58:22;100626.09;;;8.47;100.00
61697;BME280;47610;52.252;20.922;2023-04-27T20:03:25;100625.12;;;8.41;100.00
61697;BME280;47610;52.252;20.922;2023-04-27T20:08:28;100628.18;;;8.35;100.00
61697;BME280;47610;52.252;20.922;2023-04-27T20:13:31;100628.05;;;8.29;100.00
61697;BME280;47610;52.252;20.922;2023-04-27T20:18:35;100626.70;;;8.22;100.00
61697;BME280;47610;52.252;20.922;2023-04-27T20:23:38;100631.23;;;8.15;99.82
61697;BME280;47610;52.252;20.922;2023-04-27T20:28:41;100636.48;;;8.08;98.68
61697;BME280;47610;52.252;20.922;2023-04-27T20:33:44;100641.55;;;8.00;98.40
61697;BME280;47610;52.252;20.922;2023-04-27T20:38:48;100645.54;;;7.93;98.15
61697;BME280;47610;52.252;20.922;2023-04-27T20:43:51;100653.99;;;7.85;97.96
61697;BME280;47610;52.252;20.922;2023-04-27T20:48:54;100651.97;;;7.79;98.97
61697;BME280;47610;52.252;20.922;2023-04-27T20:53:58;100654.52;;;7.73;99.46
61697;BME280;47610;52.252;20.922;2023-04-27T20:59:01;100656.47;;;7.68;99.50
61697;BME280;47610;52.252;20.922;2023-04-27T21:04:06;100659.80;;;7.65;100.00
61697;BME280;47610;52.252;20.922;2023-04-27T21:09:09;100657.45;;;7.62;100.00
61697;BME280;47610;52.252;20.922;2023-04-27T21:14:12;100658.42;;;7.61;100.00
61697;BME280;47610;52.252;20.922;2023-04-27T21:19:15;100663.11;;;7.59;100.00
61697;BME280;47610;52.252;20.922;2023-04-27T21:24:19;100664.16;;;7.56;100.00
61697;BME280;47610;52.252;20.922;2023-04-27T21:29:22;100665.90;;;7.55;100.00
61697;BME280;47610;52.252;20.922;2023-04-27T21:34:25;100668.32;;;7.52;100.00
61697;BME280;47610;52.252;20.922;2023-04-27T21:39:28;100664.66;;;7.47;100.00
61697;BME280;47610;52.252;20.922;2023-04-27T21:44:31;100671.38;;;7.45;100.00
61697;BME280;47610;52.252;20.922;2023-04-27T21:49:34;100669.40;;;7.39;100.00
61697;BME280;47610;52.252;20.922;2023-04-27T21:54:38;100672.29;;;7.35;100.00
61697;BME280;47610;52.252;20.922;2023-04-27T21:59:41;100675.29;;;7.31;100.00
61697;BME280;47610;52.252;20.922;2023-04-27T22:04:44;100680.95;;;7.26;100.00
61697;BME280;47610;52.252;20.922;2023-04-27T22:09:47;100686.30;;;7.22;100.00
61697;BME280;47610;52.252;20.922;2023-04-27T22:14:51;100685.59;;;7.16;100.00
61697;BME280;47610;52.252;20.922;2023-04-27T22:19:54;100684.44;;;7.10;100.00
61697;BME280;47610;52.252;20.922;2023-04-27T22:24:57;100686.63;;;7.07;100.00
61697;BME280;47610;52.252;20.922;2023-04-27T22:30:00;100685.77;;;7.08;100.00
61697;BME280;47610;52.252;20.922;2023-04-27T22:35:04;100692.98;;;7.10;100.00
61697;BME280;47610;52.252;20.922;2023-04-27T22:40:09;100694.45;;;7.16;100.00
61697;BME280;47610;52.252;20.922;2023-04-27T22:45:13;100689.06;;;7.20;100.00
61697;BME280;47610;52.252;20.922;2023-04-27T22:50:16;100685.13;;;7.23;100.00
61697;BME280;47610;52.252;20.922;2023-04-27T22:55:20;100684.31;;;7.27;100.00
61697;BME280;47610;52.252;20.922;2023-04-27T23:00:23;100694.74;;;7.31;100.00
61697;BME280;47610;52.252;20.922;2023-04-27T23:05:27;100691.41;;;7.32;100.00
61697;BME280;47610;52.252;20.922;2023-04-27T23:10:30;100695.14;;;7.27;100.00
61697;BME280;47610;52.252;20.922;2023-04-27T23:15:33;100703.41;;;7.20;100.00
61697;BME280;47610;52.252;20.922;2023-04-27T23:20:37;100701.70;;;7.14;100.00
61697;BME280;47610;52.252;20.922;2023-04-27T23:25:40;100697.38;;;7.08;100.00
61697;BME280;47610;52.252;20.922;2023-04-27T23:30:43;100695.57;;;7.02;100.00
61697;BME280;47610;52.252;20.922;2023-04-27T23:35:53;100696.35;;;6.95;100.00
61697;BME280;47610;52.252;20.922;2023-04-27T23:40:56;100697.81;;;6.85;100.00
61697;BME280;47610;52.252;20.922;2023-04-27T23:45:59;100695.00;;;6.76;100.00
61697;BME280;47610;52.252;20.922;2023-04-27T23:51:03;100698.18;;;6.68;100.00
61697;BME280;47610;52.252;20.922;2023-04-27T23:56:15;100695.27;;;6.60;100.00
